sensor_id;sensor_type;location;lat;lon;timestamp;P1;durP1;ratioP1;P2;durP2;ratioP2
29092;SDS011;16167;48.768;14.984;2022-09-24T00:02:02;10.02;;;8.07;;
29092;SDS011;16167;48.768;14.984;2022-09-24T00:04:31;9.63;;;7.13;;
29092;SDS011;16167;48.768;14.984;2022-09-24T00:07:01;10.60;;;7.75;;
29092;SDS011;16167;48.768;14.984;2022-09-24T00:09:30;11.05;;;8.60;;
29092;SDS011;16167;48.768;14.984;2022-09-24T00:11:58;11.70;;;8.63;;
29092;SDS011;16167;48.768;14.984;2022-09-24T00:14:29;14.82;;;9.18;;
29092;SDS011;16167;48.768;14.984;2022-09-24T00:16:57;12.73;;;9.00;;
29092;SDS011;16167;48.768;14.984;2022-09-24T00:19:25;10.07;;;7.90;;
29092;SDS011;16167;48.768;14.984;2022-09-24T00:21:53;11.88;;;7.95;;
29092;SDS011;16167;48.768;14.984;2022-09-24T00:24:23;10.70;;;8.30;;
29092;SDS011;16167;48.768;14.984;2022-09-24T00:27:09;13.45;;;8.43;;
29092;SDS011;16167;48.768;14.984;2022-09-24T00:29:38;9.85;;;8.50;;
29092;SDS011;16167;48.768;14.984;2022-09-24T00:32:06;13.77;;;8.30;;
29092;SDS011;16167;48.768;14.984;2022-09-24T00:34:35;10.38;;;7.70;;
29092;SDS011;16167;48.768;14.984;2022-09-24T00:37:03;12.43;;;8.55;;
29092;SDS011;16167;48.768;14.984;2022-09-24T00:39:31;10.70;;;7.95;;
29092;SDS011;16167;48.768;14.984;2022-09-24T00:41:59;13.27;;;8.43;;
29092;SDS011;16167;48.768;14.984;2022-09-24T00:47:30;13.05;;;8.80;;
29092;SDS011;16167;48.768;14.984;2022-09-24T00:50:03;14.13;;;8.30;;
29092;SDS011;16167;48.768;14.984;2022-09-24T00:52:39;11.32;;;8.80;;
29092;SDS011;16167;48.768;14.984;2022-09-24T00:55:10;12.98;;;8.25;;
29092;SDS011;16167;48.768;14.984;2022-09-24T00:57:40;10.77;;;8.35;;
29092;SDS011;16167;48.768;14.984;2022-09-24T01:02:40;11.25;;;9.00;;
29092;SDS011;16167;48.768;14.984;2022-09-24T01:05:11;11.70;;;8.55;;
29092;SDS011;16167;48.768;14.984;2022-09-24T01:07:39;9.97;;;8.60;;
29092;SDS011;16167;48.768;14.984;2022-09-24T01:10:08;13.18;;;9.00;;
29092;SDS011;16167;48.768;14.984;2022-09-24T01:12:39;10.50;;;8.55;;
29092;SDS011;16167;48.768;14.984;2022-09-24T01:15:19;13.82;;;8.32;;
29092;SDS011;16167;48.768;14.984;2022-09-24T01:17:54;12.70;;;8.52;;
29092;SDS011;16167;48.768;14.984;2022-09-24T01:20:49;11.52;;;8.73;;
29092;SDS011;16167;48.768;14.984;2022-09-24T01:23:29;10.95;;;8.38;;
29092;SDS011;16167;48.768;14.984;2022-09-24T01:32:08;12.27;;;8.38;;
29092;SDS011;16167;48.768;14.984;2022-09-24T01:34:44;10.27;;;8.20;;
29092;SDS011;16167;48.768;14.984;2022-09-24T01:37:16;11.13;;;8.20;;
29092;SDS011;16167;48.768;14.984;2022-09-24T01:39:47;11.48;;;8.73;;
29092;SDS011;16167;48.768;14.984;2022-09-24T01:42:17;12.23;;;8.05;;
29092;SDS011;16167;48.768;14.984;2022-09-24T01:47:17;11.77;;;9.10;;
29092;SDS011;16167;48.768;14.984;2022-09-24T01:49:50;12.63;;;9.55;;
29092;SDS011;16167;48.768;14.984;2022-09-24T01:52:22;12.15;;;8.10;;
29092;SDS011;16167;48.768;14.984;2022-09-24T01:54:53;13.60;;;9.57;;
29092;SDS011;16167;48.768;14.984;2022-09-24T01:57:24;10.63;;;8.75;;
29092;SDS011;16167;48.768;14.984;2022-09-24T02:00:00;13.75;;;8.70;;
29092;SDS011;16167;48.768;14.984;2022-09-24T02:02:32;12.32;;;8.63;;
29092;SDS011;16167;48.768;14.984;2022-09-24T02:05:06;12.93;;;9.05;;
29092;SDS011;16167;48.768;14.984;2022-09-24T02:07:39;12.02;;;7.70;;
29092;SDS011;16167;48.768;14.984;2022-09-24T02:10:12;10.68;;;7.95;;
29092;SDS011;16167;48.768;14.984;2022-09-24T02:12:41;9.85;;;7.50;;
29092;SDS011;16167;48.768;14.984;2022-09-24T02:15:14;10.15;;;7.72;;
29092;SDS011;16167;48.768;14.984;2022-09-24T02:17:47;11.30;;;8.05;;
29092;SDS011;16167;48.768;14.984;2022-09-24T02:20:21;8.57;;;7.13;;
29092;SDS011;16167;48.768;14.984;2022-09-24T02:22:50;12.10;;;7.38;;
29092;SDS011;16167;48.768;14.984;2022-09-24T02:25:22;10.38;;;8.27;;
29092;SDS011;16167;48.768;14.984;2022-09-24T02:27:54;9.65;;;7.05;;
29092;SDS011;16167;48.768;14.984;2022-09-24T02:30:24;8.30;;;7.00;;
29092;SDS011;16167;48.768;14.984;2022-09-24T02:32:52;9.10;;;7.03;;
29092;SDS011;16167;48.768;14.984;2022-09-24T02:35:22;9.88;;;6.93;;
29092;SDS011;16167;48.768;14.984;2022-09-24T02:37:50;7.63;;;6.53;;
29092;SDS011;16167;48.768;14.984;2022-09-24T02:40:18;10.13;;;6.72;;
29092;SDS011;16167;48.768;14.984;2022-09-24T02:42:47;9.40;;;7.07;;
29092;SDS011;16167;48.768;14.984;2022-09-24T02:45:15;9.63;;;7.75;;
29092;SDS011;16167;48.768;14.984;2022-09-24T02:47:45;10.93;;;8.15;;
29092;SDS011;16167;48.768;14.984;2022-09-24T02:50:13;9.38;;;7.32;;
29092;SDS011;16167;48.768;14.984;2022-09-24T02:52:41;11.55;;;8.45;;
29092;SDS011;16167;48.768;14.984;2022-09-24T02:55:09;9.15;;;7.38;;
29092;SDS011;16167;48.768;14.984;2022-09-24T02:57:37;11.65;;;7.70;;
29092;SDS011;16167;48.768;14.984;2022-09-24T03:00:06;9.38;;;7.38;;
29092;SDS011;16167;48.768;14.984;2022-09-24T03:02:35;8.93;;;6.68;;
29092;SDS011;16167;48.768;14.984;2022-09-24T03:05:05;8.43;;;6.93;;
29092;SDS011;16167;48.768;14.984;2022-09-24T03:07:33;8.00;;;6.35;;
29092;SDS011;16167;48.768;14.984;2022-09-24T03:10:03;8.75;;;7.28;;
29092;SDS011;16167;48.768;14.984;2022-09-24T03:12:31;10.67;;;7.90;;
29092;SDS011;16167;48.768;14.984;2022-09-24T03:14:59;10.20;;;7.20;;
29092;SDS011;16167;48.768;14.984;2022-09-24T03:17:27;7.65;;;6.32;;
29092;SDS011;16167;48.768;14.984;2022-09-24T03:19:56;6.78;;;6.05;;
29092;SDS011;16167;48.768;14.984;2022-09-24T03:22:25;8.55;;;6.60;;
29092;SDS011;16167;48.768;14.984;2022-09-24T03:24:53;7.13;;;6.22;;
29092;SDS011;16167;48.768;14.984;2022-09-24T03:27:21;10.88;;;7.28;;
29092;SDS011;16167;48.768;14.984;2022-09-24T03:29:49;7.25;;;6.15;;
29092;SDS011;16167;48.768;14.984;2022-09-24T03:32:34;8.82;;;6.57;;
29092;SDS011;16167;48.768;14.984;2022-09-24T03:35:04;6.95;;;5.55;;
29092;SDS011;16167;48.768;14.984;2022-09-24T03:37:35;8.02;;;6.70;;
29092;SDS011;16167;48.768;14.984;2022-09-24T03:40:04;8.00;;;6.43;;
29092;SDS011;16167;48.768;14.984;2022-09-24T03:42:33;6.07;;;4.93;;
29092;SDS011;16167;48.768;14.984;2022-09-24T03:45:02;8.93;;;6.97;;
29092;SDS011;16167;48.768;14.984;2022-09-24T03:47:31;8.05;;;6.95;;
29092;SDS011;16167;48.768;14.984;2022-09-24T03:49:59;11.25;;;7.03;;
29092;SDS011;16167;48.768;14.984;2022-09-24T03:52:27;8.85;;;7.03;;
29092;SDS011;16167;48.768;14.984;2022-09-24T03:54:57;9.05;;;7.13;;
29092;SDS011;16167;48.768;14.984;2022-09-24T03:57:25;11.15;;;7.95;;
29092;SDS011;16167;48.768;14.984;2022-09-24T03:59:53;11.35;;;8.98;;
29092;SDS011;16167;48.768;14.984;2022-09-24T04:02:22;11.02;;;8.18;;
29092;SDS011;16167;48.768;14.984;2022-09-24T04:04:50;15.07;;;13.13;;
29092;SDS011;16167;48.768;14.984;2022-09-24T04:07:19;8.65;;;7.40;;
29092;SDS011;16167;48.768;14.984;2022-09-24T04:09:47;13.70;;;10.27;;
29092;SDS011;16167;48.768;14.984;2022-09-24T04:12:18;17.13;;;11.98;;
29092;SDS011;16167;48.768;14.984;2022-09-24T04:14:46;15.50;;;11.65;;
29092;SDS011;16167;48.768;14.984;2022-09-24T04:17:14;11.02;;;7.85;;
29092;SDS011;16167;48.768;14.984;2022-09-24T04:19:42;11.65;;;8.00;;
29092;SDS011;16167;48.768;14.984;2022-09-24T04:22:10;9.07;;;6.60;;
29092;SDS011;16167;48.768;14.984;2022-09-24T04:24:39;6.85;;;6.18;;
29092;SDS011;16167;48.768;14.984;2022-09-24T04:27:06;9.27;;;7.22;;
29092;SDS011;16167;48.768;14.984;2022-09-24T04:32:05;7.45;;;6.47;;
29092;SDS011;16167;48.768;14.984;2022-09-24T04:34:33;10.55;;;7.22;;
29092;SDS011;16167;48.768;14.984;2022-09-24T04:37:01;7.70;;;6.90;;
29092;SDS011;16167;48.768;14.984;2022-09-24T04:39:31;10.38;;;7.57;;
29092;SDS011;16167;48.768;14.984;2022-09-24T04:41:59;12.07;;;8.20;;
29092;SDS011;16167;48.768;14.984;2022-09-24T04:44:27;11.10;;;8.60;;
29092;SDS011;16167;48.768;14.984;2022-09-24T04:46:56;9.63;;;8.43;;
29092;SDS011;16167;48.768;14.984;2022-09-24T04:49:28;9.60;;;7.80;;
29092;SDS011;16167;48.768;14.984;2022-09-24T04:51:56;10.60;;;6.70;;
29092;SDS011;16167;48.768;14.984;2022-09-24T04:54:24;9.27;;;7.07;;
29092;SDS011;16167;48.768;14.984;2022-09-24T04:56:54;9.50;;;6.50;;
29092;SDS011;16167;48.768;14.984;2022-09-24T04:59:22;9.82;;;7.55;;
29092;SDS011;16167;48.768;14.984;2022-09-24T05:01:50;9.65;;;7.80;;
29092;SDS011;16167;48.768;14.984;2022-09-24T05:04:21;14.65;;;9.10;;
29092;SDS011;16167;48.768;14.984;2022-09-24T05:06:49;12.52;;;8.40;;
29092;SDS011;16167;48.768;14.984;2022-09-24T05:09:17;9.25;;;7.60;;
29092;SDS011;16167;48.768;14.984;2022-09-24T05:11:44;10.95;;;8.02;;
29092;SDS011;16167;48.768;14.984;2022-09-24T05:14:12;12.63;;;8.55;;
29092;SDS011;16167;48.768;14.984;2022-09-24T05:16:40;9.35;;;7.72;;
29092;SDS011;16167;48.768;14.984;2022-09-24T05:19:08;10.50;;;8.05;;
29092;SDS011;16167;48.768;14.984;2022-09-24T05:21:38;7.93;;;7.07;;
29092;SDS011;16167;48.768;14.984;2022-09-24T05:24:06;10.02;;;8.02;;
29092;SDS011;16167;48.768;14.984;2022-09-24T05:26:34;9.13;;;6.93;;
29092;SDS011;16167;48.768;14.984;2022-09-24T05:29:21;9.93;;;7.60;;
29092;SDS011;16167;48.768;14.984;2022-09-24T05:31:49;10.82;;;7.32;;
29092;SDS011;16167;48.768;14.984;2022-09-24T05:34:19;10.70;;;7.57;;
29092;SDS011;16167;48.768;14.984;2022-09-24T05:36:48;8.63;;;6.97;;
29092;SDS011;16167;48.768;14.984;2022-09-24T05:39:16;9.55;;;7.95;;
29092;SDS011;16167;48.768;14.984;2022-09-24T05:41:44;11.63;;;10.43;;
29092;SDS011;16167;48.768;14.984;2022-09-24T05:44:12;9.13;;;7.88;;
29092;SDS011;16167;48.768;14.984;2022-09-24T05:46:40;10.80;;;7.57;;
29092;SDS011;16167;48.768;14.984;2022-09-24T05:49:08;8.32;;;7.15;;
29092;SDS011;16167;48.768;14.984;2022-09-24T05:51:36;10.10;;;6.93;;
29092;SDS011;16167;48.768;14.984;2022-09-24T05:54:05;10.73;;;6.60;;
29092;SDS011;16167;48.768;14.984;2022-09-24T05:56:34;8.63;;;6.90;;
29092;SDS011;16167;48.768;14.984;2022-09-24T05:59:02;9.07;;;6.93;;
29092;SDS011;16167;48.768;14.984;2022-09-24T06:01:30;9.77;;;7.80;;
29092;SDS011;16167;48.768;14.984;2022-09-24T06:04:00;11.90;;;6.50;;
29092;SDS011;16167;48.768;14.984;2022-09-24T06:06:34;10.07;;;7.40;;
29092;SDS011;16167;48.768;14.984;2022-09-24T06:09:02;10.32;;;7.88;;
29092;SDS011;16167;48.768;14.984;2022-09-24T06:11:32;8.77;;;6.88;;
29092;SDS011;16167;48.768;14.984;2022-09-24T06:14:05;9.70;;;8.10;;
29092;SDS011;16167;48.768;14.984;2022-09-24T06:16:34;10.13;;;7.03;;
29092;SDS011;16167;48.768;14.984;2022-09-24T06:19:02;13.55;;;10.00;;
29092;SDS011;16167;48.768;14.984;2022-09-24T06:21:30;12.95;;;9.70;;
29092;SDS011;16167;48.768;14.984;2022-09-24T06:23:58;13.23;;;10.75;;
29092;SDS011;16167;48.768;14.984;2022-09-24T06:26:26;13.85;;;10.40;;
29092;SDS011;16167;48.768;14.984;2022-09-24T06:28:56;13.70;;;9.65;;
29092;SDS011;16167;48.768;14.984;2022-09-24T06:31:30;10.35;;;8.73;;
29092;SDS011;16167;48.768;14.984;2022-09-24T06:34:00;17.85;;;10.13;;
29092;SDS011;16167;48.768;14.984;2022-09-24T06:36:28;11.32;;;9.02;;
29092;SDS011;16167;48.768;14.984;2022-09-24T06:38:56;15.13;;;10.23;;
29092;SDS011;16167;48.768;14.984;2022-09-24T06:41:24;12.73;;;10.38;;
29092;SDS011;16167;48.768;14.984;2022-09-24T06:43:52;11.55;;;10.27;;
29092;SDS011;16167;48.768;14.984;2022-09-24T06:46:23;13.65;;;9.77;;
29092;SDS011;16167;48.768;14.984;2022-09-24T06:48:52;13.82;;;10.85;;
29092;SDS011;16167;48.768;14.984;2022-09-24T06:51:20;13.18;;;10.73;;
29092;SDS011;16167;48.768;14.984;2022-09-24T06:53:49;9.95;;;8.88;;
29092;SDS011;16167;48.768;14.984;2022-09-24T06:56:17;13.05;;;10.25;;
29092;SDS011;16167;48.768;14.984;2022-09-24T06:58:45;8.73;;;7.70;;
29092;SDS011;16167;48.768;14.984;2022-09-24T07:01:13;11.80;;;8.88;;
29092;SDS011;16167;48.768;14.984;2022-09-24T07:03:43;10.30;;;8.10;;
29092;SDS011;16167;48.768;14.984;2022-09-24T07:06:11;9.20;;;7.90;;
29092;SDS011;16167;48.768;14.984;2022-09-24T07:08:39;8.43;;;7.10;;
29092;SDS011;16167;48.768;14.984;2022-09-24T07:11:08;8.95;;;7.47;;
29092;SDS011;16167;48.768;14.984;2022-09-24T07:13:36;11.30;;;7.88;;
29092;SDS011;16167;48.768;14.984;2022-09-24T07:16:04;9.45;;;7.50;;
29092;SDS011;16167;48.768;14.984;2022-09-24T07:18:32;8.55;;;7.45;;
29092;SDS011;16167;48.768;14.984;2022-09-24T07:21:04;15.68;;;9.27;;
29092;SDS011;16167;48.768;14.984;2022-09-24T07:23:33;15.82;;;10.07;;
29092;SDS011;16167;48.768;14.984;2022-09-24T07:26:01;22.23;;;12.63;;
29092;SDS011;16167;48.768;14.984;2022-09-24T07:28:29;14.57;;;9.93;;
29092;SDS011;16167;48.768;14.984;2022-09-24T07:30:58;14.18;;;9.68;;
29092;SDS011;16167;48.768;14.984;2022-09-24T07:33:26;12.38;;;9.02;;
29092;SDS011;16167;48.768;14.984;2022-09-24T07:35:57;8.93;;;7.97;;
29092;SDS011;16167;48.768;14.984;2022-09-24T07:38:26;12.80;;;7.40;;
29092;SDS011;16167;48.768;14.984;2022-09-24T07:40:55;9.23;;;7.40;;
29092;SDS011;16167;48.768;14.984;2022-09-24T07:43:24;8.20;;;7.32;;
29092;SDS011;16167;48.768;14.984;2022-09-24T07:45:53;6.18;;;5.57;;
29092;SDS011;16167;48.768;14.984;2022-09-24T07:48:23;9.32;;;7.35;;
29092;SDS011;16167;48.768;14.984;2022-09-24T07:50:51;8.13;;;7.22;;
29092;SDS011;16167;48.768;14.984;2022-09-24T07:53:19;9.35;;;7.28;;
29092;SDS011;16167;48.768;14.984;2022-09-24T07:55:51;10.75;;;6.40;;
29092;SDS011;16167;48.768;14.984;2022-09-24T07:58:21;9.10;;;6.85;;
29092;SDS011;16167;48.768;14.984;2022-09-24T08:00:49;9.52;;;7.00;;
29092;SDS011;16167;48.768;14.984;2022-09-24T08:03:17;8.30;;;6.53;;
29092;SDS011;16167;48.768;14.984;2022-09-24T08:05:46;7.55;;;6.07;;
29092;SDS011;16167;48.768;14.984;2022-09-24T08:08:14;8.10;;;6.07;;
29092;SDS011;16167;48.768;14.984;2022-09-24T08:10:42;7.03;;;5.75;;
29092;SDS011;16167;48.768;14.984;2022-09-24T08:13:12;7.57;;;6.30;;
29092;SDS011;16167;48.768;14.984;2022-09-24T08:15:42;7.05;;;5.97;;
29092;SDS011;16167;48.768;14.984;2022-09-24T08:18:10;8.13;;;6.15;;
29092;SDS011;16167;48.768;14.984;2022-09-24T08:20:38;8.85;;;5.53;;
29092;SDS011;16167;48.768;14.984;2022-09-24T08:23:07;7.35;;;6.22;;
29092;SDS011;16167;48.768;14.984;2022-09-24T08:25:36;8.48;;;5.90;;
29092;SDS011;16167;48.768;14.984;2022-09-24T08:28:04;8.05;;;5.22;;
29092;SDS011;16167;48.768;14.984;2022-09-24T08:30:36;8.02;;;5.47;;
29092;SDS011;16167;48.768;14.984;2022-09-24T08:33:05;7.22;;;5.70;;
29092;SDS011;16167;48.768;14.984;2022-09-24T08:35:33;5.50;;;4.85;;
29092;SDS011;16167;48.768;14.984;2022-09-24T08:38:01;8.63;;;5.45;;
29092;SDS011;16167;48.768;14.984;2022-09-24T08:40:32;7.55;;;5.80;;
29092;SDS011;16167;48.768;14.984;2022-09-24T08:43:07;7.20;;;5.43;;
29092;SDS011;16167;48.768;14.984;2022-09-24T08:45:48;6.63;;;5.30;;
29092;SDS011;16167;48.768;14.984;2022-09-24T08:48:37;7.68;;;5.88;;
29092;SDS011;16167;48.768;14.984;2022-09-24T08:51:10;9.63;;;5.93;;
29092;SDS011;16167;48.768;14.984;2022-09-24T08:53:45;8.95;;;6.60;;
29092;SDS011;16167;48.768;14.984;2022-09-24T08:56:19;13.40;;;6.97;;
29092;SDS011;16167;48.768;14.984;2022-09-24T08:58:52;7.97;;;6.30;;
29092;SDS011;16167;48.768;14.984;2022-09-24T09:01:29;7.40;;;5.45;;
29092;SDS011;16167;48.768;14.984;2022-09-24T09:06:49;6.40;;;5.05;;
29092;SDS011;16167;48.768;14.984;2022-09-24T09:09:31;11.05;;;5.70;;
29092;SDS011;16167;48.768;14.984;2022-09-24T09:12:09;7.05;;;5.65;;
29092;SDS011;16167;48.768;14.984;2022-09-24T09:14:42;6.00;;;4.80;;
29092;SDS011;16167;48.768;14.984;2022-09-24T09:17:25;6.55;;;5.38;;
29092;SDS011;16167;48.768;14.984;2022-09-24T09:20:00;9.98;;;6.50;;
29092;SDS011;16167;48.768;14.984;2022-09-24T09:22:34;8.77;;;5.55;;
29092;SDS011;16167;48.768;14.984;2022-09-24T09:25:14;10.18;;;7.43;;
29092;SDS011;16167;48.768;14.984;2022-09-24T09:27:47;9.43;;;6.72;;
29092;SDS011;16167;48.768;14.984;2022-09-24T09:30:19;8.00;;;6.57;;
29092;SDS011;16167;48.768;14.984;2022-09-24T09:32:58;8.13;;;6.10;;
29092;SDS011;16167;48.768;14.984;2022-09-24T09:35:37;6.57;;;5.30;;
29092;SDS011;16167;48.768;14.984;2022-09-24T09:38:12;10.18;;;5.30;;
29092;SDS011;16167;48.768;14.984;2022-09-24T09:40:51;7.53;;;5.70;;
29092;SDS011;16167;48.768;14.984;2022-09-24T09:43:24;6.03;;;5.43;;
29092;SDS011;16167;48.768;14.984;2022-09-24T09:45:55;5.43;;;4.85;;
29092;SDS011;16167;48.768;14.984;2022-09-24T09:48:38;6.33;;;4.93;;
29092;SDS011;16167;48.768;14.984;2022-09-24T09:51:14;6.43;;;5.30;;
29092;SDS011;16167;48.768;14.984;2022-09-24T09:53:52;8.55;;;5.43;;
29092;SDS011;16167;48.768;14.984;2022-09-24T09:56:22;7.95;;;5.28;;
29092;SDS011;16167;48.768;14.984;2022-09-24T09:59:00;8.05;;;5.53;;
29092;SDS011;16167;48.768;14.984;2022-09-24T10:01:33;6.90;;;5.50;;
29092;SDS011;16167;48.768;14.984;2022-09-24T10:04:04;12.50;;;6.07;;
29092;SDS011;16167;48.768;14.984;2022-09-24T10:09:10;9.60;;;5.70;;
29092;SDS011;16167;48.768;14.984;2022-09-24T10:11:42;6.43;;;5.30;;
29092;SDS011;16167;48.768;14.984;2022-09-24T10:14:13;8.23;;;5.88;;
29092;SDS011;16167;48.768;14.984;2022-09-24T10:16:44;14.82;;;10.77;;
29092;SDS011;16167;48.768;14.984;2022-09-24T10:19:16;7.72;;;5.88;;
29092;SDS011;16167;48.768;14.984;2022-09-24T10:21:48;7.15;;;5.28;;
29092;SDS011;16167;48.768;14.984;2022-09-24T10:24:18;6.97;;;5.03;;
29092;SDS011;16167;48.768;14.984;2022-09-24T10:26:49;9.02;;;5.22;;
29092;SDS011;16167;48.768;14.984;2022-09-24T10:29:18;7.20;;;5.40;;
29092;SDS011;16167;48.768;14.984;2022-09-24T10:32:12;5.57;;;5.07;;
29092;SDS011;16167;48.768;14.984;2022-09-24T10:34:54;6.93;;;5.63;;
29092;SDS011;16167;48.768;14.984;2022-09-24T10:37:23;7.00;;;4.47;;
29092;SDS011;16167;48.768;14.984;2022-09-24T10:39:58;7.65;;;4.85;;
29092;SDS011;16167;48.768;14.984;2022-09-24T10:42:28;9.18;;;6.40;;
29092;SDS011;16167;48.768;14.984;2022-09-24T10:44:57;6.75;;;5.20;;
29092;SDS011;16167;48.768;14.984;2022-09-24T10:47:29;6.55;;;4.38;;
29092;SDS011;16167;48.768;14.984;2022-09-24T10:50:11;5.22;;;4.65;;
29092;SDS011;16167;48.768;14.984;2022-09-24T10:52:52;7.32;;;4.95;;
29092;SDS011;16167;48.768;14.984;2022-09-24T10:55:24;8.45;;;4.78;;
29092;SDS011;16167;48.768;14.984;2022-09-24T10:58:20;5.50;;;4.40;;
29092;SDS011;16167;48.768;14.984;2022-09-24T11:01:07;6.25;;;3.72;;
29092;SDS011;16167;48.768;14.984;2022-09-24T11:03:46;5.15;;;4.00;;
29092;SDS011;16167;48.768;14.984;2022-09-24T11:06:33;6.18;;;4.32;;
29092;SDS011;16167;48.768;14.984;2022-09-24T11:09:13;5.40;;;4.28;;
29092;SDS011;16167;48.768;14.984;2022-09-24T11:11:52;4.78;;;3.42;;
29092;SDS011;16167;48.768;14.984;2022-09-24T11:14:30;6.00;;;3.67;;
29092;SDS011;16167;48.768;14.984;2022-09-24T11:17:16;6.60;;;3.50;;
29092;SDS011;16167;48.768;14.984;2022-09-24T11:20:04;3.88;;;3.50;;
29092;SDS011;16167;48.768;14.984;2022-09-24T11:22:47;4.72;;;3.83;;
29092;SDS011;16167;48.768;14.984;2022-09-24T11:25:38;6.15;;;4.10;;
29092;SDS011;16167;48.768;14.984;2022-09-24T11:28:22;5.53;;;3.80;;
29092;SDS011;16167;48.768;14.984;2022-09-24T11:31:06;6.15;;;3.90;;
29092;SDS011;16167;48.768;14.984;2022-09-24T11:33:49;4.35;;;3.20;;
29092;SDS011;16167;48.768;14.984;2022-09-24T11:36:49;6.53;;;3.45;;
29092;SDS011;16167;48.768;14.984;2022-09-24T11:39:36;4.18;;;3.63;;
29092;SDS011;16167;48.768;14.984;2022-09-24T11:42:17;6.55;;;3.45;;
29092;SDS011;16167;48.768;14.984;2022-09-24T11:44:53;5.85;;;3.28;;
29092;SDS011;16167;48.768;14.984;2022-09-24T11:47:35;4.20;;;3.25;;
29092;SDS011;16167;48.768;14.984;2022-09-24T11:50:22;3.83;;;3.43;;
29092;SDS011;16167;48.768;14.984;2022-09-24T11:53:01;3.63;;;3.13;;
29092;SDS011;16167;48.768;14.984;2022-09-24T11:55:37;3.45;;;3.15;;
29092;SDS011;16167;48.768;14.984;2022-09-24T11:58:12;3.80;;;2.97;;
29092;SDS011;16167;48.768;14.984;2022-09-24T12:00:47;3.95;;;3.30;;
29092;SDS011;16167;48.768;14.984;2022-09-24T12:03:21;4.75;;;2.88;;
29092;SDS011;16167;48.768;14.984;2022-09-24T12:05:53;5.25;;;2.72;;
29092;SDS011;16167;48.768;14.984;2022-09-24T12:08:27;3.72;;;3.35;;
29092;SDS011;16167;48.768;14.984;2022-09-24T12:11:03;4.07;;;3.20;;
29092;SDS011;16167;48.768;14.984;2022-09-24T12:13:36;2.92;;;2.67;;
29092;SDS011;16167;48.768;14.984;2022-09-24T12:16:09;4.13;;;3.10;;
29092;SDS011;16167;48.768;14.984;2022-09-24T12:18:41;4.60;;;2.97;;
29092;SDS011;16167;48.768;14.984;2022-09-24T12:21:17;3.35;;;3.00;;
29092;SDS011;16167;48.768;14.984;2022-09-24T12:23:48;6.25;;;4.88;;
29092;SDS011;16167;48.768;14.984;2022-09-24T12:26:19;9.73;;;4.93;;
29092;SDS011;16167;48.768;14.984;2022-09-24T12:28:53;4.30;;;3.70;;
29092;SDS011;16167;48.768;14.984;2022-09-24T12:31:44;6.95;;;3.42;;
29092;SDS011;16167;48.768;14.984;2022-09-24T12:34:44;5.65;;;4.20;;
29092;SDS011;16167;48.768;14.984;2022-09-24T12:37:19;9.40;;;5.60;;
29092;SDS011;16167;48.768;14.984;2022-09-24T12:39:52;5.82;;;4.80;;
29092;SDS011;16167;48.768;14.984;2022-09-24T12:42:31;5.07;;;3.97;;
29092;SDS011;16167;48.768;14.984;2022-09-24T12:45:04;5.20;;;3.88;;
29092;SDS011;16167;48.768;14.984;2022-09-24T12:47:44;7.43;;;5.55;;
29092;SDS011;16167;48.768;14.984;2022-09-24T12:50:18;5.82;;;3.83;;
29092;SDS011;16167;48.768;14.984;2022-09-24T12:52:49;5.78;;;3.65;;
29092;SDS011;16167;48.768;14.984;2022-09-24T12:55:18;7.63;;;3.72;;
29092;SDS011;16167;48.768;14.984;2022-09-24T12:57:51;4.30;;;3.80;;
29092;SDS011;16167;48.768;14.984;2022-09-24T13:00:38;4.13;;;3.08;;
29092;SDS011;16167;48.768;14.984;2022-09-24T13:03:27;6.22;;;3.50;;
29092;SDS011;16167;48.768;14.984;2022-09-24T13:05:59;3.65;;;2.90;;
29092;SDS011;16167;48.768;14.984;2022-09-24T13:08:34;3.53;;;3.20;;
29092;SDS011;16167;48.768;14.984;2022-09-24T13:11:04;4.40;;;3.10;;
29092;SDS011;16167;48.768;14.984;2022-09-24T13:13:58;4.00;;;3.20;;
29092;SDS011;16167;48.768;14.984;2022-09-24T13:16:30;4.20;;;3.05;;
29092;SDS011;16167;48.768;14.984;2022-09-24T13:19:03;6.50;;;3.05;;
29092;SDS011;16167;48.768;14.984;2022-09-24T13:21:51;6.75;;;4.00;;
29092;SDS011;16167;48.768;14.984;2022-09-24T13:24:25;7.25;;;4.53;;
29092;SDS011;16167;48.768;14.984;2022-09-24T13:27:06;4.95;;;4.35;;
29092;SDS011;16167;48.768;14.984;2022-09-24T13:29:38;6.07;;;3.80;;
29092;SDS011;16167;48.768;14.984;2022-09-24T13:32:07;5.75;;;3.55;;
29092;SDS011;16167;48.768;14.984;2022-09-24T13:34:44;5.38;;;3.30;;
29092;SDS011;16167;48.768;14.984;2022-09-24T13:37:17;4.88;;;3.95;;
29092;SDS011;16167;48.768;14.984;2022-09-24T13:39:50;5.93;;;4.15;;
29092;SDS011;16167;48.768;14.984;2022-09-24T13:42:26;4.10;;;3.70;;
29092;SDS011;16167;48.768;14.984;2022-09-24T13:45:00;4.43;;;3.85;;
29092;SDS011;16167;48.768;14.984;2022-09-24T13:47:35;7.07;;;5.55;;
29092;SDS011;16167;48.768;14.984;2022-09-24T13:50:11;4.65;;;3.63;;
29092;SDS011;16167;48.768;14.984;2022-09-24T13:52:44;6.50;;;5.28;;
29092;SDS011;16167;48.768;14.984;2022-09-24T13:55:19;9.60;;;5.20;;
29092;SDS011;16167;48.768;14.984;2022-09-24T13:57:51;6.30;;;4.10;;
29092;SDS011;16167;48.768;14.984;2022-09-24T14:00:21;4.47;;;3.60;;
29092;SDS011;16167;48.768;14.984;2022-09-24T14:02:53;4.30;;;3.20;;
29092;SDS011;16167;48.768;14.984;2022-09-24T14:05:24;3.80;;;3.47;;
29092;SDS011;16167;48.768;14.984;2022-09-24T14:07:56;6.85;;;3.97;;
29092;SDS011;16167;48.768;14.984;2022-09-24T14:10:27;7.70;;;4.38;;
29092;SDS011;16167;48.768;14.984;2022-09-24T14:12:59;6.32;;;4.20;;
29092;SDS011;16167;48.768;14.984;2022-09-24T14:15:52;5.90;;;3.88;;
29092;SDS011;16167;48.768;14.984;2022-09-24T14:18:22;6.32;;;3.85;;
29092;SDS011;16167;48.768;14.984;2022-09-24T14:20:53;6.07;;;5.00;;
29092;SDS011;16167;48.768;14.984;2022-09-24T14:23:26;5.07;;;4.40;;
29092;SDS011;16167;48.768;14.984;2022-09-24T14:25:59;4.82;;;4.00;;
29092;SDS011;16167;48.768;14.984;2022-09-24T14:28:30;4.85;;;4.00;;
29092;SDS011;16167;48.768;14.984;2022-09-24T14:31:01;6.22;;;3.58;;
29092;SDS011;16167;48.768;14.984;2022-09-24T14:33:36;5.00;;;3.75;;
29092;SDS011;16167;48.768;14.984;2022-09-24T14:36:08;5.85;;;3.47;;
29092;SDS011;16167;48.768;14.984;2022-09-24T14:38:43;4.70;;;3.70;;
29092;SDS011;16167;48.768;14.984;2022-09-24T14:41:20;6.88;;;3.80;;
29092;SDS011;16167;48.768;14.984;2022-09-24T14:43:50;3.75;;;3.35;;
29092;SDS011;16167;48.768;14.984;2022-09-24T14:46:24;5.55;;;4.07;;
29092;SDS011;16167;48.768;14.984;2022-09-24T14:49:03;6.50;;;5.43;;
29092;SDS011;16167;48.768;14.984;2022-09-24T14:51:33;6.20;;;5.30;;
29092;SDS011;16167;48.768;14.984;2022-09-24T14:54:17;5.72;;;4.32;;
29092;SDS011;16167;48.768;14.984;2022-09-24T14:56:48;6.47;;;3.38;;
29092;SDS011;16167;48.768;14.984;2022-09-24T14:59:25;4.53;;;3.45;;
29092;SDS011;16167;48.768;14.984;2022-09-24T15:02:05;3.75;;;3.45;;
29092;SDS011;16167;48.768;14.984;2022-09-24T15:04:43;4.10;;;3.67;;
29092;SDS011;16167;48.768;14.984;2022-09-24T15:07:15;7.15;;;3.97;;
29092;SDS011;16167;48.768;14.984;2022-09-24T15:09:47;4.07;;;3.58;;
29092;SDS011;16167;48.768;14.984;2022-09-24T15:12:19;4.68;;;4.10;;
29092;SDS011;16167;48.768;14.984;2022-09-24T15:14:55;5.68;;;4.15;;
29092;SDS011;16167;48.768;14.984;2022-09-24T15:17:29;8.73;;;3.67;;
29092;SDS011;16167;48.768;14.984;2022-09-24T15:19:58;4.45;;;3.83;;
29092;SDS011;16167;48.768;14.984;2022-09-24T15:22:27;4.97;;;3.80;;